Terminal Aerodrome Forecast
Issued by NWS

Home | Current Version | Previous Version | Text Only | Print | Product List | Glossary Off
Versions: 1 2 3 4 5 6 7 8 9 10 11 12

000
FTUS43 KMPX 261700 RRA
TAFRNH
TAF
KRNH 261739Z 2618/2718 36007KT P6SM OVC012
     FM270300 35008KT 4SM -SN BR OVC012
     FM270500 35008KT 2SM -SN BR BKN007
     FM271000 34008KT 4SM -SN BR BKN012
     FM271600 32008KT P6SM BKN018=

USA.gov is the U.S. government's official web portal to all federal, state and local government web resources and services.